Terminal Aerodrome Forecast
Issued by NWS

Home | Current Version | Previous Version | Graphics & Text | Print | Product List | Glossary On
Versions: 1 2 3 4 5 6 7 8 9 10 11 12 13 14 15 16 17 18 19 20 21 22
495
FTUS43 KMPX 191728
TAFAXN
TAF
KAXN 191728Z 1918/2018 13012KT P6SM BKN250
     FM192000 14015G21KT P6SM BKN250
     FM200400 15013G20KT P6SM OVC150 WS020/20048KT
     FM200900 16013KT P6SM VCSH OVC010
     FM201400 16011KT 4SM -SHRA BR OVC008=

USA.gov is the U.S. government's official web portal to all federal, state and local government web resources and services.